Forside
METAR-TAF:

METAR-TAF

Lufthavne :

Parsons, Tennessee, USA

Breddekreds: 35-39-23N, længdekreds: 088-11-43W, højde: 149 m

Aktuelle vejr

Denne rapport blev lavet for 23 minutter siden, kl. 21:35 UTC
Vind stille
Temperatur 12°C
Fugtighed 62%
Tryk 1020 hPa
Sigt: 16.1 km
skyfri

METAR: KPVE 162135Z AUTO 00000KT 10SM CLR 12/05 A3012 RMK A01

Tid: 15:58 (21:58 UTC)


TAF: fraværende

Vejrobservationer og prognoser fra mere end 4000 lufthavne (METAR og TAF).

De gule og røde prikker repræsenterer de meteorologiske stationer.

Flyt musen over at se navnet på stationen.

Så klik over at se vejr observationer og prognoser.

At skifte det kort: Klik på de grønne knapper med et sort kors for at zoome ind; på den grønne knap med en bindestreg for at zoome ud; eller på de grønne pile for tilstødende kort.


METAR-TAF: